createdAt,value
2022-09-24T00:02:26.586Z,8.27
2022-09-24T00:04:54.137Z,7.97
2022-09-24T00:07:21.448Z,8.43
2022-09-24T00:09:50.120Z,7.50
2022-09-24T00:12:17.338Z,8.90
2022-09-24T00:14:44.607Z,9.03
2022-09-24T00:17:12.001Z,8.70
2022-09-24T00:19:39.267Z,9.13
2022-09-24T00:22:06.511Z,8.70
2022-09-24T00:24:33.730Z,8.77
2022-09-24T00:27:02.832Z,8.53
2022-09-24T00:29:30.555Z,8.63
2022-09-24T00:31:57.904Z,7.97
2022-09-24T00:34:25.320Z,8.47
2022-09-24T00:36:52.640Z,8.47
2022-09-24T00:39:19.814Z,8.67
2022-09-24T00:41:47.335Z,8.80
2022-09-24T00:44:33.344Z,9.70
2022-09-24T00:47:02.086Z,8.70
2022-09-24T00:49:29.352Z,8.87
2022-09-24T00:51:56.648Z,8.07
2022-09-24T00:54:25.326Z,8.00
2022-09-24T00:56:53.094Z,9.30
2022-09-24T00:59:21.703Z,9.03
2022-09-24T01:01:49.981Z,9.17
2022-09-24T01:04:19.576Z,8.90
2022-09-24T01:06:46.803Z,8.53
2022-09-24T01:09:14.222Z,8.97
2022-09-24T01:11:46.611Z,10.10
2022-09-24T01:14:31.635Z,10.03
2022-09-24T01:17:02.592Z,10.43
2022-09-24T01:19:42.418Z,10.43
2022-09-24T01:22:16.719Z,9.87
2022-09-24T01:24:51.268Z,10.20
2022-09-24T01:27:20.123Z,10.50
2022-09-24T01:29:54.389Z,9.20
2022-09-24T01:32:26.739Z,9.87
2022-09-24T01:34:59.604Z,8.77
2022-09-24T01:37:28.358Z,9.57
2022-09-24T01:39:56.253Z,9.53
2022-09-24T01:42:24.051Z,8.90
2022-09-24T01:44:53.163Z,10.10
2022-09-24T01:47:21.867Z,9.47
2022-09-24T01:49:49.158Z,9.33
2022-09-24T01:52:20.841Z,9.33
2022-09-24T01:54:49.218Z,9.03
2022-09-24T01:57:19.996Z,10.40
2022-09-24T01:59:49.185Z,9.53
2022-09-24T02:02:22.312Z,10.50
2022-09-24T02:05:02.258Z,10.47
2022-09-24T02:07:32.998Z,11.10
2022-09-24T02:10:00.297Z,9.33
2022-09-24T02:12:30.072Z,10.37
2022-09-24T02:14:59.703Z,8.87
2022-09-24T02:17:31.858Z,10.07
2022-09-24T02:20:02.332Z,10.67
2022-09-24T02:22:30.413Z,9.73
2022-09-24T02:24:58.596Z,11.80
2022-09-24T02:27:26.095Z,10.30
2022-09-24T02:29:53.682Z,9.33
2022-09-24T02:32:22.587Z,10.33
2022-09-24T02:34:53.303Z,10.90
2022-09-24T02:37:23.579Z,10.77
2022-09-24T02:39:50.860Z,10.70
2022-09-24T02:42:18.777Z,10.93
2022-09-24T02:44:46.078Z,10.13
2022-09-24T02:47:13.321Z,11.90
2022-09-24T02:49:40.625Z,12.60
2022-09-24T02:52:09.288Z,12.53
2022-09-24T02:54:36.471Z,11.77
2022-09-24T02:57:03.695Z,13.10
2022-09-24T02:59:30.862Z,12.73
2022-09-24T03:01:58.182Z,10.37
2022-09-24T03:04:25.578Z,12.70
2022-09-24T03:06:52.775Z,14.07
2022-09-24T03:09:21.395Z,12.20
2022-09-24T03:11:48.575Z,11.57
2022-09-24T03:14:15.764Z,13.60
2022-09-24T03:16:43.016Z,11.77
2022-09-24T03:19:10.288Z,11.47
2022-09-24T03:21:37.540Z,13.23
2022-09-24T03:24:04.847Z,13.83
2022-09-24T03:26:33.440Z,14.67
2022-09-24T03:29:00.684Z,12.50
2022-09-24T03:31:27.973Z,13.80
2022-09-24T03:33:55.220Z,13.43
2022-09-24T03:36:23.134Z,15.60
2022-09-24T03:38:51.743Z,13.90
2022-09-24T03:41:19.253Z,14.03
2022-09-24T03:43:47.756Z,14.73
2022-09-24T03:46:15.318Z,14.60
2022-09-24T03:48:42.665Z,15.77
2022-09-24T03:51:11.128Z,15.73
2022-09-24T03:53:38.472Z,15.93
2022-09-24T03:56:06.527Z,14.60
2022-09-24T03:58:34.351Z,14.37
2022-09-24T04:01:03.156Z,16.20
2022-09-24T04:03:30.355Z,15.77
2022-09-24T04:05:57.537Z,16.50
2022-09-24T04:08:24.753Z,15.80
2022-09-24T04:10:52.431Z,16.93
2022-09-24T04:13:20.152Z,16.30
2022-09-24T04:15:47.534Z,16.40
2022-09-24T04:18:16.303Z,19.13
2022-09-24T04:20:43.685Z,16.63
2022-09-24T04:23:11.608Z,18.67
2022-09-24T04:25:39.017Z,18.00
2022-09-24T04:28:07.013Z,16.57
2022-09-24T04:30:35.162Z,20.33
2022-09-24T04:33:02.629Z,17.57
2022-09-24T04:35:32.080Z,16.87
2022-09-24T04:37:59.638Z,17.07
2022-09-24T04:40:27.345Z,20.00
2022-09-24T04:42:54.677Z,21.37
2022-09-24T04:45:21.950Z,23.33
2022-09-24T04:47:49.465Z,14.23
2022-09-24T04:50:16.750Z,15.90
2022-09-24T04:52:45.359Z,13.73
2022-09-24T04:55:12.662Z,12.20
2022-09-24T04:57:39.877Z,8.77
2022-09-24T05:00:08.536Z,9.80
2022-09-24T05:02:35.895Z,8.83
2022-09-24T05:05:03.275Z,8.63
2022-09-24T05:07:30.481Z,6.63
2022-09-24T05:09:59.239Z,6.67
2022-09-24T05:12:26.468Z,4.53
2022-09-24T05:14:53.722Z,4.63
2022-09-24T05:17:21.101Z,3.80
2022-09-24T05:19:48.482Z,3.90
2022-09-24T05:22:15.715Z,3.37
2022-09-24T05:24:42.912Z,2.23
2022-09-24T05:27:11.491Z,2.87
2022-09-24T05:29:39.513Z,2.70
2022-09-24T05:32:07.708Z,2.90
2022-09-24T05:34:35.083Z,2.27
2022-09-24T05:37:02.903Z,2.40
2022-09-24T05:39:33.892Z,2.60
2022-09-24T05:42:01.623Z,2.00
2022-09-24T05:44:30.478Z,2.60
2022-09-24T05:46:58.363Z,2.07
2022-09-24T05:49:25.759Z,2.53
2022-09-24T05:51:52.958Z,2.13
2022-09-24T05:54:20.184Z,2.43
2022-09-24T05:56:47.462Z,1.90
2022-09-24T05:59:14.673Z,2.03
2022-09-24T06:01:43.379Z,2.53
2022-09-24T06:04:10.675Z,1.93
2022-09-24T06:06:37.985Z,2.07
2022-09-24T06:09:05.291Z,2.03
2022-09-24T06:11:36.370Z,1.83
2022-09-24T06:14:07.179Z,2.43
2022-09-24T06:16:34.611Z,2.20
2022-09-24T06:19:03.290Z,2.17
2022-09-24T06:21:30.604Z,1.73
2022-09-24T06:23:57.831Z,1.93
2022-09-24T06:26:25.168Z,1.90
2022-09-24T06:28:52.375Z,2.20
2022-09-24T06:31:19.760Z,2.00
2022-09-24T06:33:47.038Z,1.90
2022-09-24T06:36:15.749Z,2.00
2022-09-24T06:38:43.076Z,2.17
2022-09-24T06:41:10.319Z,1.80
2022-09-24T06:43:37.515Z,2.10
2022-09-24T06:46:04.972Z,2.90
2022-09-24T06:48:32.389Z,1.60
2022-09-24T06:50:59.640Z,2.20
2022-09-24T06:53:28.335Z,1.90
2022-09-24T06:55:57.189Z,2.57
2022-09-24T06:58:24.438Z,2.40
2022-09-24T07:00:52.621Z,2.07
2022-09-24T07:03:19.950Z,2.40
2022-09-24T07:05:47.141Z,2.23
2022-09-24T07:08:14.432Z,2.30
2022-09-24T07:10:46.293Z,2.03
2022-09-24T07:13:13.933Z,2.10
2022-09-24T07:15:41.272Z,3.20
2022-09-24T07:18:08.504Z,2.50
2022-09-24T07:20:35.800Z,3.07
2022-09-24T07:23:03.501Z,2.10
2022-09-24T07:25:30.762Z,2.17
2022-09-24T07:28:02.481Z,2.07
2022-09-24T07:30:29.670Z,2.13
2022-09-24T07:32:57.440Z,2.13
2022-09-24T07:35:24.697Z,2.37
2022-09-24T07:37:57.100Z,2.37
2022-09-24T07:40:24.564Z,2.57
2022-09-24T07:42:51.855Z,2.10
2022-09-24T07:45:20.653Z,2.07
2022-09-24T07:47:47.967Z,1.80
2022-09-24T07:50:15.229Z,2.10
2022-09-24T07:52:42.438Z,2.27
2022-09-24T07:55:09.818Z,2.90
2022-09-24T07:57:37.049Z,2.10
2022-09-24T08:00:04.512Z,2.67
2022-09-24T08:02:40.286Z,2.20
2022-09-24T08:05:07.901Z,2.20
2022-09-24T08:07:35.192Z,2.20
2022-09-24T08:10:02.407Z,2.70
2022-09-24T08:12:33.074Z,2.10
2022-09-24T08:15:00.317Z,1.93
2022-09-24T08:17:27.503Z,1.87
2022-09-24T08:19:56.064Z,2.27
2022-09-24T08:26:17.243Z,2.43
2022-09-24T08:28:44.471Z,2.73
2022-09-24T08:31:12.922Z,2.17
2022-09-24T08:33:40.501Z,2.20
2022-09-24T08:36:10.004Z,2.80
2022-09-24T08:38:37.484Z,2.00
2022-09-24T08:41:16.951Z,2.07
2022-09-24T08:43:47.832Z,2.73
2022-09-24T08:46:17.588Z,2.30
2022-09-24T08:48:47.087Z,2.70
2022-09-24T08:51:36.572Z,3.20
2022-09-24T08:54:11.863Z,2.23
2022-09-24T08:56:58.208Z,2.53
2022-09-24T08:59:28.591Z,2.60
2022-09-24T09:01:59.404Z,2.70
2022-09-24T09:04:29.630Z,3.33
2022-09-24T09:07:05.081Z,2.30
2022-09-24T09:12:43.653Z,2.20
2022-09-24T09:15:12.378Z,2.27
2022-09-24T09:17:42.440Z,2.63
2022-09-24T09:20:18.286Z,2.57
2022-09-24T09:26:28.205Z,2.03
2022-09-24T09:28:58.753Z,2.00
2022-09-24T09:31:32.655Z,1.90
2022-09-24T09:34:07.932Z,2.30
2022-09-24T09:36:44.246Z,1.93
2022-09-24T09:39:21.726Z,2.10
2022-09-24T09:41:53.477Z,1.97
2022-09-24T09:44:22.692Z,2.00
2022-09-24T09:46:52.378Z,2.03
2022-09-24T09:49:20.454Z,2.37
2022-09-24T09:51:48.415Z,2.23
2022-09-24T09:54:15.661Z,2.07
2022-09-24T09:56:43.830Z,2.00
2022-09-24T09:59:17.809Z,2.17
2022-09-24T10:01:46.473Z,2.53
2022-09-24T10:04:24.636Z,2.07
2022-09-24T10:06:51.899Z,2.03
2022-09-24T10:09:19.857Z,1.77
2022-09-24T10:11:47.161Z,1.90
2022-09-24T10:14:15.361Z,2.07
2022-09-24T10:16:44.965Z,2.17
2022-09-24T10:19:17.596Z,2.20
2022-09-24T10:21:44.963Z,2.10
2022-09-24T10:24:14.813Z,1.70
2022-09-24T10:26:45.378Z,2.00
2022-09-24T10:29:14.713Z,2.07
2022-09-24T10:31:42.298Z,2.67
2022-09-24T10:34:20.828Z,1.80
2022-09-24T10:36:51.463Z,1.63
2022-09-24T10:39:18.711Z,2.00
2022-09-24T10:41:49.644Z,1.67
2022-09-24T10:44:17.414Z,1.77
2022-09-24T10:46:49.686Z,2.03
2022-09-24T10:49:24.339Z,2.07
2022-09-24T10:51:54.647Z,1.80
2022-09-24T10:57:15.683Z,1.90
2022-09-24T10:59:49.409Z,1.70
2022-09-24T11:02:34.628Z,2.00
2022-09-24T11:05:15.963Z,2.87
2022-09-24T11:08:05.036Z,2.07
2022-09-24T11:10:57.110Z,1.77
2022-09-24T11:13:33.052Z,2.30
2022-09-24T11:16:16.280Z,1.83
2022-09-24T11:18:47.620Z,1.73
2022-09-24T11:21:20.448Z,2.23
2022-09-24T11:26:55.938Z,1.73
2022-09-24T11:29:36.865Z,2.17
2022-09-24T11:32:07.529Z,2.23
2022-09-24T11:34:41.207Z,2.47
2022-09-24T11:37:15.602Z,2.17
2022-09-24T11:40:02.592Z,1.87
2022-09-24T11:42:51.852Z,1.47
2022-09-24T11:45:27.390Z,1.67
2022-09-24T11:48:04.633Z,1.77
2022-09-24T11:50:39.891Z,2.00
2022-09-24T11:53:13.144Z,1.80
2022-09-24T11:55:42.601Z,1.90
2022-09-24T11:58:14.952Z,2.10
2022-09-24T12:00:45.902Z,1.93
2022-09-24T12:03:19.910Z,1.90
2022-09-24T12:05:53.325Z,2.00
2022-09-24T12:08:24.571Z,2.20
2022-09-24T12:11:08.172Z,2.40
2022-09-24T12:16:19.715Z,1.97
2022-09-24T12:18:49.809Z,1.97
2022-09-24T12:21:18.838Z,2.47
2022-09-24T12:23:49.359Z,2.00
2022-09-24T12:26:18.449Z,2.23
2022-09-24T12:31:24.519Z,2.00
2022-09-24T12:33:54.746Z,2.30
2022-09-24T12:36:24.571Z,2.10
2022-09-24T12:39:10.853Z,2.20
2022-09-24T12:42:03.035Z,1.90
2022-09-24T12:44:46.024Z,1.83
2022-09-24T12:47:16.367Z,1.57
2022-09-24T12:49:48.729Z,1.90
2022-09-24T12:52:19.941Z,1.97
2022-09-24T12:54:47.209Z,2.93
2022-09-24T12:57:16.810Z,1.97
2022-09-24T12:59:49.101Z,2.43
2022-09-24T13:02:18.524Z,2.83
2022-09-24T13:04:50.343Z,1.50
2022-09-24T13:07:28.033Z,2.17
2022-09-24T13:09:55.302Z,1.57
2022-09-24T13:12:23.082Z,2.10
2022-09-24T13:15:28.149Z,2.97
2022-09-24T13:18:30.168Z,2.10
2022-09-24T13:20:58.831Z,2.13
2022-09-24T13:23:31.520Z,2.10
2022-09-24T13:25:59.460Z,1.77
2022-09-24T13:28:35.764Z,1.60
2022-09-24T13:31:13.562Z,2.47
2022-09-24T13:34:01.328Z,1.70
2022-09-24T13:36:30.378Z,2.13
2022-09-24T13:38:58.869Z,2.13
2022-09-24T13:41:29.682Z,2.23
2022-09-24T13:47:40.838Z,1.70
2022-09-24T13:50:09.415Z,2.17
2022-09-24T13:52:37.998Z,1.70
2022-09-24T13:55:08.543Z,5.70
2022-09-24T13:57:43.510Z,4.17
2022-09-24T14:00:14.783Z,1.80
2022-09-24T14:02:44.489Z,1.40
2022-09-24T14:05:16.660Z,2.30
2022-09-24T14:07:52.526Z,1.90
2022-09-24T14:10:19.855Z,2.87
2022-09-24T14:12:47.146Z,2.13
2022-09-24T14:15:16.090Z,2.43
2022-09-24T14:20:36.304Z,1.67
2022-09-24T14:23:05.291Z,1.70
2022-09-24T14:25:34.482Z,1.53
2022-09-24T14:31:52.311Z,1.40
2022-09-24T14:34:25.119Z,1.70
2022-09-24T14:36:55.047Z,1.40
2022-09-24T14:39:24.289Z,1.83
2022-09-24T14:41:52.097Z,1.43
2022-09-24T14:44:23.067Z,1.50
2022-09-24T14:49:27.462Z,1.50
2022-09-24T14:51:57.626Z,1.57
2022-09-24T14:54:28.349Z,1.70
2022-09-24T14:56:55.970Z,1.93
2022-09-24T14:59:29.775Z,1.83
2022-09-24T15:02:15.726Z,1.43
2022-09-24T15:04:47.335Z,1.27
2022-09-24T15:07:22.738Z,1.50
2022-09-24T15:09:51.045Z,1.83
2022-09-24T15:12:19.884Z,1.57
2022-09-24T15:14:54.584Z,1.50
2022-09-24T15:17:23.015Z,1.47
2022-09-24T15:19:50.244Z,1.40
2022-09-24T15:25:01.016Z,1.70
2022-09-24T15:27:29.679Z,1.70
2022-09-24T15:29:57.333Z,1.67
2022-09-24T15:32:24.531Z,1.50
2022-09-24T15:34:51.992Z,1.50
2022-09-24T15:41:11.389Z,1.70
2022-09-24T15:43:39.999Z,1.63
2022-09-24T15:46:07.245Z,1.53
2022-09-24T15:48:34.547Z,2.30
2022-09-24T15:51:05.925Z,1.90
2022-09-24T15:53:37.472Z,1.83
2022-09-24T15:56:08.373Z,1.80
2022-09-24T15:58:35.631Z,1.67
2022-09-24T16:01:04.524Z,1.57
2022-09-24T16:03:32.614Z,1.47
2022-09-24T16:06:00.592Z,1.73
2022-09-24T16:08:27.848Z,1.57
2022-09-24T16:10:55.688Z,1.50
2022-09-24T16:13:26.541Z,2.10
2022-09-24T16:16:03.193Z,2.23
2022-09-24T16:18:33.979Z,1.60
2022-09-24T16:21:04.969Z,1.70
2022-09-24T16:23:32.175Z,1.43
2022-09-24T16:25:59.874Z,1.87
2022-09-24T16:28:27.594Z,1.60
2022-09-24T16:31:05.333Z,1.47
2022-09-24T16:33:37.483Z,1.63
2022-09-24T16:36:05.486Z,1.47
2022-09-24T16:38:34.320Z,1.90
2022-09-24T16:43:55.484Z,1.53
2022-09-24T16:46:23.078Z,1.67
2022-09-24T16:48:51.770Z,2.07
2022-09-24T16:51:18.983Z,1.70
2022-09-24T16:53:49.017Z,1.70
2022-09-24T16:56:17.565Z,1.63
2022-09-24T16:58:45.293Z,1.63
2022-09-24T17:01:13.854Z,1.63
2022-09-24T17:03:41.354Z,1.43
2022-09-24T17:06:17.474Z,1.57
2022-09-24T17:08:44.672Z,2.00
2022-09-24T17:11:12.249Z,1.80
2022-09-24T17:13:39.573Z,1.80
2022-09-24T17:16:07.092Z,1.80
2022-09-24T17:18:34.628Z,1.70
2022-09-24T17:21:02.257Z,1.97
2022-09-24T17:23:31.110Z,1.70
2022-09-24T17:26:02.227Z,1.50
2022-09-24T17:28:32.278Z,1.70
2022-09-24T17:30:59.602Z,1.80
2022-09-24T17:33:42.850Z,2.77
2022-09-24T17:36:11.842Z,1.53
2022-09-24T17:38:40.443Z,1.80
2022-09-24T17:41:08.491Z,1.77
2022-09-24T17:43:35.758Z,1.97
2022-09-24T17:46:04.052Z,1.60
2022-09-24T17:48:32.643Z,1.53
2022-09-24T17:51:01.164Z,1.80
2022-09-24T17:53:31.040Z,1.47
2022-09-24T17:56:00.559Z,1.90
2022-09-24T17:58:28.226Z,1.77
2022-09-24T18:00:55.802Z,2.10
2022-09-24T18:03:23.014Z,1.50
2022-09-24T18:05:50.291Z,2.27
2022-09-24T18:08:17.496Z,2.20
2022-09-24T18:10:44.783Z,2.17
2022-09-24T18:13:13.346Z,2.30
2022-09-24T18:15:40.624Z,1.80
2022-09-24T18:18:07.905Z,1.60
2022-09-24T18:20:36.678Z,1.83
2022-09-24T18:23:03.954Z,1.73
2022-09-24T18:25:31.223Z,2.20
2022-09-24T18:27:58.763Z,1.90
2022-09-24T18:30:27.407Z,1.90
2022-09-24T18:32:54.803Z,2.33
2022-09-24T18:35:22.059Z,1.77
2022-09-24T18:37:49.290Z,2.33
2022-09-24T18:40:16.641Z,2.20
2022-09-24T18:42:43.964Z,2.23
2022-09-24T18:45:11.785Z,2.07
2022-09-24T18:47:40.353Z,1.90
2022-09-24T18:50:08.373Z,2.17
2022-09-24T18:52:35.593Z,2.27
2022-09-24T18:55:02.929Z,1.63
2022-09-24T18:57:30.347Z,1.60
2022-09-24T18:59:57.829Z,1.87
2022-09-24T19:02:25.232Z,2.60
2022-09-24T19:04:53.990Z,2.10
2022-09-24T19:07:21.258Z,2.10
2022-09-24T19:09:48.488Z,2.10
2022-09-24T19:12:15.753Z,2.07
2022-09-24T19:14:42.945Z,1.93
2022-09-24T19:17:10.171Z,1.53
2022-09-24T19:19:37.382Z,1.90
2022-09-24T19:22:05.924Z,2.87
2022-09-24T19:24:33.146Z,1.80
2022-09-24T19:27:00.358Z,2.20
2022-09-24T19:29:27.778Z,2.00
2022-09-24T19:31:55.019Z,1.67
2022-09-24T19:34:22.233Z,2.27
2022-09-24T19:36:49.483Z,1.80
2022-09-24T19:39:18.040Z,1.60
2022-09-24T19:41:45.564Z,1.83
2022-09-24T19:44:12.920Z,1.87
2022-09-24T19:46:40.450Z,1.93
2022-09-24T19:49:07.785Z,1.73
2022-09-24T19:51:35.373Z,2.40
2022-09-24T19:54:03.663Z,2.27
2022-09-24T19:56:32.563Z,2.50
2022-09-24T19:59:00.816Z,1.83
2022-09-24T20:01:29.244Z,2.13
2022-09-24T20:03:56.757Z,1.80
2022-09-24T20:06:24.490Z,1.80
2022-09-24T20:08:51.731Z,1.60
2022-09-24T20:11:20.174Z,2.07
2022-09-24T20:13:48.892Z,1.70
2022-09-24T20:16:18.385Z,2.00
2022-09-24T20:18:46.300Z,2.53
2022-09-24T20:21:13.642Z,1.73
2022-09-24T20:23:40.846Z,1.73
2022-09-24T20:26:08.221Z,1.90
2022-09-24T20:28:35.461Z,1.97
2022-09-24T20:31:08.986Z,1.97
2022-09-24T20:33:36.276Z,1.97
2022-09-24T20:36:07.341Z,2.23
2022-09-24T20:38:42.197Z,2.27
2022-09-24T20:41:09.946Z,2.00
2022-09-24T20:43:37.408Z,2.27
2022-09-24T20:46:09.964Z,2.43
2022-09-24T20:48:37.869Z,2.17
2022-09-24T20:51:08.392Z,2.30
2022-09-24T20:53:37.051Z,1.90
2022-09-24T20:56:06.003Z,1.80
2022-09-24T20:58:33.468Z,1.73
2022-09-24T21:01:00.775Z,2.23
2022-09-24T21:03:44.003Z,1.97
2022-09-24T21:06:12.816Z,1.80
2022-09-24T21:08:41.190Z,1.90
2022-09-24T21:11:09.374Z,2.00
2022-09-24T21:13:40.723Z,2.00
2022-09-24T21:16:08.471Z,2.13
2022-09-24T21:18:40.128Z,1.90
2022-09-24T21:21:08.682Z,2.33
2022-09-24T21:23:35.947Z,1.90
2022-09-24T21:26:12.741Z,2.10
2022-09-24T21:28:40.236Z,2.20
2022-09-24T21:31:07.737Z,2.00
2022-09-24T21:33:36.456Z,2.43
2022-09-24T21:36:04.789Z,1.47
2022-09-24T21:38:32.223Z,2.00
2022-09-24T21:43:35.905Z,1.80
2022-09-24T21:49:24.111Z,2.43
2022-09-24T21:51:52.846Z,1.83
2022-09-24T21:54:20.211Z,1.90
2022-09-24T21:56:47.750Z,2.10
2022-09-24T21:59:14.983Z,1.43
2022-09-24T22:01:42.405Z,1.90
2022-09-24T22:04:09.709Z,1.93
2022-09-24T22:06:36.996Z,1.73
2022-09-24T22:09:06.190Z,2.23
2022-09-24T22:11:33.715Z,1.60
2022-09-24T22:14:01.475Z,1.73
2022-09-24T22:16:29.923Z,1.80
2022-09-24T22:19:00.303Z,1.90
2022-09-24T22:21:27.963Z,2.23
2022-09-24T22:23:55.489Z,1.83
2022-09-24T22:26:24.160Z,1.80
2022-09-24T22:28:51.363Z,2.07
2022-09-24T22:31:19.400Z,1.70
2022-09-24T22:33:49.776Z,1.93
2022-09-24T22:36:17.077Z,2.00
2022-09-24T22:38:44.276Z,2.10
2022-09-24T22:41:11.713Z,1.60
2022-09-24T22:43:44.487Z,1.77
2022-09-24T22:46:13.590Z,1.60
2022-09-24T22:48:40.938Z,1.67
2022-09-24T22:51:08.739Z,1.60
2022-09-24T22:53:36.526Z,1.57
2022-09-24T22:56:05.118Z,1.70
2022-09-24T22:58:32.655Z,1.93
2022-09-24T23:01:07.504Z,1.70
2022-09-24T23:03:35.049Z,1.80
2022-09-24T23:06:02.568Z,1.30
2022-09-24T23:08:30.076Z,1.40
2022-09-24T23:10:57.340Z,2.03
2022-09-24T23:13:24.846Z,2.00
2022-09-24T23:15:52.145Z,1.97
2022-09-24T23:18:36.160Z,1.97
2022-09-24T23:21:04.681Z,1.53
2022-09-24T23:23:31.914Z,2.17
2022-09-24T23:26:01.792Z,1.50
2022-09-24T23:28:29.366Z,1.53
2022-09-24T23:30:57.668Z,1.60
2022-09-24T23:33:24.912Z,2.00
2022-09-24T23:35:55.020Z,1.70
2022-09-24T23:38:22.295Z,1.77
2022-09-24T23:40:49.537Z,1.40
2022-09-24T23:43:17.141Z,1.60
2022-09-24T23:45:49.327Z,1.67
2022-09-24T23:48:16.859Z,1.77
2022-09-24T23:50:44.454Z,1.93
2022-09-24T23:53:13.412Z,1.90
2022-09-24T23:55:40.918Z,1.77
2022-09-24T23:58:08.113Z,1.60
